PWSweather.com
Personal Weather Stations
Station Observations
WILLOWTN37
St. LeonardsonseaGB TN377PA

St. LeonardsonseaGB TN377PA

Lat: 50.885, Lon: 0.55

Elevation: 300

Station Type: Davis Vantage Pro 2

http://willowsweather.blogspot.com/

Latest ConditionsUpdated 12:40:01 PM GMT Saturday, Jul 20, 2019
Currently Today's Max Today's Min Today's Average
Temperature 68.4°F20.2°C 69.3°F20.7°C 62.2°F16.8°C 64.5°F18.1°C
Dew Point 63.7°F17.6°C 64.6°F18.1°C 60.8°F16.0°C 62.7°F17.1°C
Winds 5.0 mph SSW8.0 kmh SSW 6.0 mph -9.7 kmh - - 3.2 mph 5.1 kmh
Wind Gusts 15.0 mph24.1 kmh 20.0 mph32.2 kmh - -
Humidity 85% 96% 82% 94%
Pressure 29.82 in1009.8 mb 29.82 in1009.8 mb 29.73 in1006.8 mb -
Precipitation - 1.07 in27.2 mm - -
Hour Temp Dew Point Humidity Winds Wind Gusts Pressure Precip Precip Rate Daily Precip Total
12:40 PM 68.4°F20.2°C 63.7°F17.6°C 85% 5.0 mph SSW8.0 kmh SSW 15.0 mph24.1 kmh 29.82 in1009.8 mb 0.00 in0.0 mm 0.00 in0.0 mm 1.07 in27.2 mm
12:35 PM 68.4°F20.2°C 63.7°F17.6°C 85% 5.0 mph SSW8.0 kmh SSW 15.0 mph24.1 kmh 29.82 in1009.8 mb 0.00 in0.0 mm 0.00 in0.0 mm 1.07 in27.2 mm
12:30 PM 68.5°F20.3°C 64.2°F17.9°C 86% 5.0 mph SSW8.0 kmh SSW 20.0 mph32.2 kmh 29.82 in1009.8 mb 0.01 in0.3 mm 0.00 in0.0 mm 1.07 in27.2 mm
12:25 PM 68.4°F20.2°C 63.7°F17.6°C 85% 5.0 mph SSW8.0 kmh SSW 20.0 mph32.2 kmh 29.82 in1009.8 mb 0.01 in0.3 mm 0.00 in0.0 mm 1.07 in27.2 mm
12:20 PM 68.4°F20.2°C 64.0°F17.8°C 86% 6.0 mph SW9.7 kmh SW 20.0 mph32.2 kmh 29.82 in1009.8 mb 0.01 in0.3 mm 0.00 in0.0 mm 1.07 in27.2 mm
12:15 PM 68.2°F20.1°C 63.1°F17.3°C 84% 6.0 mph SSW9.7 kmh SSW 20.0 mph32.2 kmh 29.81 in1009.5 mb 0.01 in0.3 mm 0.00 in0.0 mm 1.07 in27.2 mm
12:10 PM 68.2°F20.1°C 62.8°F17.1°C 83% 6.0 mph SSW9.7 kmh SSW 15.0 mph24.1 kmh 29.81 in1009.5 mb 0.01 in0.3 mm 0.00 in0.0 mm 1.07 in27.2 mm
12:05 PM 68.7°F20.4°C 63.7°F17.6°C 84% 5.0 mph SSW8.0 kmh SSW 15.0 mph24.1 kmh 29.82 in1009.8 mb 0.01 in0.3 mm 0.00 in0.0 mm 1.07 in27.2 mm
12:00 PM 68.7°F20.4°C 63.5°F17.5°C 83% 5.0 mph SW8.0 kmh SW 13.0 mph20.9 kmh 29.81 in1009.5 mb 0.01 in0.3 mm 0.00 in0.0 mm 1.07 in27.2 mm
11:55 AM 69.3°F20.7°C 64.2°F17.9°C 84% 5.0 mph SW8.0 kmh SW 16.0 mph25.7 kmh 29.81 in1009.5 mb 0.01 in0.3 mm 0.00 in0.0 mm 1.07 in27.2 mm
11:50 AM 69.3°F20.7°C 63.9°F17.7°C 83% 6.0 mph SW9.7 kmh SW 16.0 mph25.7 kmh 29.81 in1009.5 mb 0.01 in0.3 mm 0.00 in0.0 mm 1.07 in27.2 mm
11:45 AM 69.3°F20.7°C 63.5°F17.5°C 82% 6.0 mph SW9.7 kmh SW 14.0 mph22.5 kmh 29.81 in1009.5 mb 0.01 in0.3 mm 0.00 in0.0 mm 1.07 in27.2 mm
11:40 AM 69.1°F20.6°C 63.7°F17.6°C 83% 5.0 mph SW8.0 kmh SW 13.0 mph20.9 kmh 29.80 in1009.1 mb 0.01 in0.3 mm 0.00 in0.0 mm 1.07 in27.2 mm
11:35 AM 68.7°F20.4°C 64.0°F17.8°C 85% 5.0 mph SSW8.0 kmh SSW 13.0 mph20.9 kmh 29.80 in1009.1 mb 0.01 in0.3 mm 0.12 in3.0 mm 1.07 in27.2 mm
11:30 AM 67.8°F19.9°C 63.5°F17.5°C 86% 6.0 mph SSW9.7 kmh SSW 13.0 mph20.9 kmh 29.80 in1009.1 mb 0.00 in0.0 mm 0.00 in0.0 mm 1.06 in26.9 mm
11:25 AM 68.4°F20.2°C 64.6°F18.1°C 88% 4.0 mph S6.4 kmh S 13.0 mph20.9 kmh 29.80 in1009.1 mb 0.00 in0.0 mm 0.00 in0.0 mm 1.06 in26.9 mm
11:20 AM 67.8°F19.9°C 64.0°F17.8°C 88% 4.0 mph SSW6.4 kmh SSW 11.0 mph17.7 kmh 29.79 in1008.8 mb 0.00 in0.0 mm 0.00 in0.0 mm 1.06 in26.9 mm
11:15 AM 67.6°F19.8°C 63.7°F17.6°C 87% 4.0 mph SSW6.4 kmh SSW 11.0 mph17.7 kmh 29.79 in1008.8 mb 0.00 in0.0 mm 0.00 in0.0 mm 1.06 in26.9 mm
11:10 AM 67.3°F19.6°C 63.9°F17.7°C 89% 4.0 mph SSW6.4 kmh SSW 10.0 mph16.1 kmh 29.79 in1008.8 mb 0.00 in0.0 mm 0.00 in0.0 mm 1.06 in26.9 mm
11:05 AM 66.7°F19.3°C 63.5°F17.5°C 89% 4.0 mph SSW6.4 kmh SSW 12.0 mph19.3 kmh 29.79 in1008.8 mb 0.00 in0.0 mm 0.00 in0.0 mm 1.06 in26.9 mm
11:00 AM 66.6°F19.2°C 63.5°F17.5°C 90% 4.0 mph SW6.4 kmh SW 12.0 mph19.3 kmh 29.79 in1008.8 mb 0.00 in0.0 mm 0.00 in0.0 mm 1.06 in26.9 mm
10:55 AM 66.0°F18.9°C 63.9°F17.7°C 93% 3.0 mph SSW4.8 kmh SSW 11.0 mph17.7 kmh 29.79 in1008.8 mb 0.00 in0.0 mm 0.00 in0.0 mm 1.06 in26.9 mm
10:50 AM 65.3°F18.5°C 63.1°F17.3°C 93% 4.0 mph SSW6.4 kmh SSW 10.0 mph16.1 kmh 29.79 in1008.8 mb 0.00 in0.0 mm 0.00 in0.0 mm 1.06 in26.9 mm
10:45 AM 65.1°F18.4°C 63.3°F17.4°C 94% 4.0 mph SSW6.4 kmh SSW 11.0 mph17.7 kmh 29.79 in1008.8 mb 0.00 in0.0 mm 0.00 in0.0 mm 1.06 in26.9 mm
10:40 AM 64.9°F18.3°C 63.3°F17.4°C 94% 4.0 mph SSW6.4 kmh SSW 11.0 mph17.7 kmh 29.79 in1008.8 mb 0.00 in0.0 mm 0.00 in0.0 mm 1.06 in26.9 mm
10:35 AM 65.1°F18.4°C 63.5°F17.5°C 94% 4.0 mph SSW6.4 kmh SSW 9.0 mph14.5 kmh 29.78 in1008.5 mb 0.00 in0.0 mm 0.00 in0.0 mm 1.06 in26.9 mm
10:30 AM 65.1°F18.4°C 63.5°F17.5°C 94% 4.0 mph S6.4 kmh S 9.0 mph14.5 kmh 29.78 in1008.5 mb 0.00 in0.0 mm 0.00 in0.0 mm 1.06 in26.9 mm
10:25 AM 65.1°F18.4°C 63.7°F17.6°C 95% 3.0 mph SSW4.8 kmh SSW 9.0 mph14.5 kmh 29.78 in1008.5 mb 0.00 in0.0 mm 0.00 in0.0 mm 1.06 in26.9 mm
10:20 AM 64.9°F18.3°C 63.5°F17.5°C 95% 3.0 mph SW4.8 kmh SW 9.0 mph14.5 kmh 29.78 in1008.5 mb 0.00 in0.0 mm 0.00 in0.0 mm 1.06 in26.9 mm
10:15 AM 64.9°F18.3°C 63.5°F17.5°C 95% 3.0 mph SW4.8 kmh SW 7.0 mph11.3 kmh 29.78 in1008.5 mb 0.00 in0.0 mm 0.00 in0.0 mm 1.06 in26.9 mm
10:10 AM 64.8°F18.2°C 63.3°F17.4°C 95% 4.0 mph S6.4 kmh S 13.0 mph20.9 kmh 29.78 in1008.5 mb 0.00 in0.0 mm 0.00 in0.0 mm 1.06 in26.9 mm
10:05 AM 64.6°F18.1°C 63.1°F17.3°C 95% 4.0 mph SSW6.4 kmh SSW 13.0 mph20.9 kmh 29.78 in1008.5 mb 0.00 in0.0 mm 0.00 in0.0 mm 1.06 in26.9 mm
10:00 AM 64.8°F18.2°C 63.3°F17.4°C 95% 3.0 mph SW4.8 kmh SW 10.0 mph16.1 kmh 29.77 in1008.1 mb 0.00 in0.0 mm 0.00 in0.0 mm 1.06 in26.9 mm
09:55 AM 64.6°F18.1°C 63.1°F17.3°C 95% 4.0 mph SSW6.4 kmh SSW 9.0 mph14.5 kmh 29.78 in1008.5 mb 0.00 in0.0 mm 0.00 in0.0 mm 1.06 in26.9 mm
09:50 AM 64.8°F18.2°C 63.5°F17.5°C 96% 4.0 mph SSW6.4 kmh SSW 9.0 mph14.5 kmh 29.77 in1008.1 mb 0.00 in0.0 mm 0.00 in0.0 mm 1.06 in26.9 mm
09:45 AM 64.6°F18.1°C 63.3°F17.4°C 96% 4.0 mph SW6.4 kmh SW 10.0 mph16.1 kmh 29.77 in1008.1 mb 0.00 in0.0 mm 0.00 in0.0 mm 1.06 in26.9 mm
09:40 AM 64.6°F18.1°C 63.3°F17.4°C 96% 4.0 mph SW6.4 kmh SW 14.0 mph22.5 kmh 29.77 in1008.1 mb 0.00 in0.0 mm 0.00 in0.0 mm 1.06 in26.9 mm
09:35 AM 64.2°F17.9°C 63.0°F17.2°C 96% 3.0 mph SW4.8 kmh SW 14.0 mph22.5 kmh 29.77 in1008.1 mb 0.00 in0.0 mm 0.00 in0.0 mm 1.06 in26.9 mm
09:30 AM 64.2°F17.9°C 63.1°F17.3°C 96% 3.0 mph SSW4.8 kmh SSW 9.0 mph14.5 kmh 29.77 in1008.1 mb 0.00 in0.0 mm 0.00 in0.0 mm 1.06 in26.9 mm
09:25 AM 64.2°F17.9°C 63.0°F17.2°C 96% 3.0 mph SW4.8 kmh SW 9.0 mph14.5 kmh 29.77 in1008.1 mb 0.00 in0.0 mm 0.00 in0.0 mm 1.06 in26.9 mm
09:20 AM 64.2°F17.9°C 63.0°F17.2°C 96% 3.0 mph WSW4.8 kmh WSW 9.0 mph14.5 kmh 29.77 in1008.1 mb 0.00 in0.0 mm 0.00 in0.0 mm 1.06 in26.9 mm
09:15 AM 64.0°F17.8°C 63.0°F17.2°C 96% 3.0 mph SW4.8 kmh SW 10.0 mph16.1 kmh 29.76 in1007.8 mb 0.00 in0.0 mm 0.00 in0.0 mm 1.06 in26.9 mm
09:10 AM 64.0°F17.8°C 63.0°F17.2°C 96% 3.0 mph SSW4.8 kmh SSW 10.0 mph16.1 kmh 29.76 in1007.8 mb 0.00 in0.0 mm 0.00 in0.0 mm 1.06 in26.9 mm
09:05 AM 64.0°F17.8°C 63.0°F17.2°C 96% 4.0 mph SSW6.4 kmh SSW 13.0 mph20.9 kmh 29.76 in1007.8 mb 0.00 in0.0 mm 0.00 in0.0 mm 1.06 in26.9 mm
09:00 AM 64.0°F17.8°C 62.6°F17.0°C 95% 5.0 mph SW8.0 kmh SW 13.0 mph20.9 kmh 29.76 in1007.8 mb 0.00 in0.0 mm 0.00 in0.0 mm 1.06 in26.9 mm
08:55 AM 64.4°F18.0°C 63.3°F17.4°C 96% 4.0 mph SW6.4 kmh SW 13.0 mph20.9 kmh 29.76 in1007.8 mb 0.00 in0.0 mm 0.00 in0.0 mm 1.06 in26.9 mm
08:50 AM 64.4°F18.0°C 63.3°F17.4°C 96% 5.0 mph S8.0 kmh S 12.0 mph19.3 kmh 29.76 in1007.8 mb 0.00 in0.0 mm 0.00 in0.0 mm 1.06 in26.9 mm
08:45 AM 64.4°F18.0°C 63.3°F17.4°C 96% 5.0 mph SSW8.0 kmh SSW 12.0 mph19.3 kmh 29.76 in1007.8 mb 0.00 in0.0 mm 0.00 in0.0 mm 1.06 in26.9 mm
08:40 AM 64.6°F18.1°C 63.3°F17.4°C 96% 4.0 mph SSW6.4 kmh SSW 16.0 mph25.7 kmh 29.76 in1007.8 mb 0.00 in0.0 mm 0.00 in0.0 mm 1.06 in26.9 mm
08:35 AM 64.4°F18.0°C 63.3°F17.4°C 96% 4.0 mph S6.4 kmh S 16.0 mph25.7 kmh 29.76 in1007.8 mb 0.00 in0.0 mm 0.00 in0.0 mm 1.06 in26.9 mm
08:30 AM 64.6°F18.1°C 63.5°F17.5°C 96% 4.0 mph S6.4 kmh S 11.0 mph17.7 kmh 29.76 in1007.8 mb 0.00 in0.0 mm 0.00 in0.0 mm 1.06 in26.9 mm
08:25 AM 64.8°F18.2°C 63.5°F17.5°C 96% 4.0 mph SSW6.4 kmh SSW 11.0 mph17.7 kmh 29.76 in1007.8 mb 0.00 in0.0 mm 0.00 in0.0 mm 1.06 in26.9 mm
08:20 AM 64.8°F18.2°C 63.5°F17.5°C 96% 4.0 mph SSW6.4 kmh SSW 11.0 mph17.7 kmh 29.76 in1007.8 mb 0.00 in0.0 mm 0.00 in0.0 mm 1.06 in26.9 mm
08:15 AM 64.6°F18.1°C 63.5°F17.5°C 96% 4.0 mph SSW6.4 kmh SSW 11.0 mph17.7 kmh 29.76 in1007.8 mb 0.00 in0.0 mm 0.00 in0.0 mm 1.06 in26.9 mm
08:10 AM 64.6°F18.1°C 63.5°F17.5°C 96% 4.0 mph S6.4 kmh S 12.0 mph19.3 kmh 29.76 in1007.8 mb 0.00 in0.0 mm 0.00 in0.0 mm 1.06 in26.9 mm
08:05 AM 64.6°F18.1°C 63.3°F17.4°C 96% 5.0 mph S8.0 kmh S 12.0 mph19.3 kmh 29.76 in1007.8 mb 0.00 in0.0 mm 0.00 in0.0 mm 1.06 in26.9 mm
08:00 AM 64.4°F18.0°C 63.3°F17.4°C 96% 5.0 mph S8.0 kmh S 12.0 mph19.3 kmh 29.75 in1007.5 mb 0.00 in0.0 mm 0.00 in0.0 mm 1.06 in26.9 mm
07:55 AM 64.4°F18.0°C 63.3°F17.4°C 96% 5.0 mph S8.0 kmh S 11.0 mph17.7 kmh 29.75 in1007.5 mb 0.00 in0.0 mm 0.00 in0.0 mm 1.06 in26.9 mm
07:50 AM 64.4°F18.0°C 63.3°F17.4°C 96% 5.0 mph S8.0 kmh S 14.0 mph22.5 kmh 29.75 in1007.5 mb 0.00 in0.0 mm 0.00 in0.0 mm 1.06 in26.9 mm
07:45 AM 64.2°F17.9°C 63.1°F17.3°C 96% 5.0 mph S8.0 kmh S 14.0 mph22.5 kmh 29.75 in1007.5 mb 0.00 in0.0 mm 0.00 in0.0 mm 1.06 in26.9 mm
07:40 AM 64.2°F17.9°C 63.1°F17.3°C 96% 5.0 mph S8.0 kmh S 9.0 mph14.5 kmh 29.75 in1007.5 mb 0.01 in0.3 mm 0.00 in0.0 mm 1.06 in26.9 mm
07:35 AM 64.2°F17.9°C 63.1°F17.3°C 96% 5.0 mph S8.0 kmh S 11.0 mph17.7 kmh 29.75 in1007.5 mb 0.01 in0.3 mm 0.00 in0.0 mm 1.06 in26.9 mm
07:30 AM 64.2°F17.9°C 63.0°F17.2°C 96% 5.0 mph S8.0 kmh S 13.0 mph20.9 kmh 29.75 in1007.5 mb 0.01 in0.3 mm 0.00 in0.0 mm 1.06 in26.9 mm
07:25 AM 64.2°F17.9°C 63.0°F17.2°C 96% 5.0 mph S8.0 kmh S 13.0 mph20.9 kmh 29.75 in1007.5 mb 0.01 in0.3 mm 0.00 in0.0 mm 1.06 in26.9 mm
07:20 AM 64.2°F17.9°C 63.0°F17.2°C 96% 5.0 mph S8.0 kmh S 10.0 mph16.1 kmh 29.75 in1007.5 mb 0.01 in0.3 mm 0.00 in0.0 mm 1.06 in26.9 mm
07:15 AM 64.0°F17.8°C 63.0°F17.2°C 96% 5.0 mph S8.0 kmh S 10.0 mph16.1 kmh 29.74 in1007.1 mb 0.01 in0.3 mm 0.00 in0.0 mm 1.06 in26.9 mm
07:10 AM 64.0°F17.8°C 63.0°F17.2°C 96% 5.0 mph S8.0 kmh S 11.0 mph17.7 kmh 29.73 in1006.8 mb 0.01 in0.3 mm 0.00 in0.0 mm 1.06 in26.9 mm
07:05 AM 64.0°F17.8°C 63.0°F17.2°C 96% 5.0 mph S8.0 kmh S 12.0 mph19.3 kmh 29.74 in1007.1 mb 0.01 in0.3 mm 0.00 in0.0 mm 1.06 in26.9 mm
07:00 AM 64.0°F17.8°C 63.0°F17.2°C 96% 5.0 mph S8.0 kmh S 13.0 mph20.9 kmh 29.74 in1007.1 mb 0.01 in0.3 mm 0.00 in0.0 mm 1.06 in26.9 mm
06:55 AM 64.0°F17.8°C 63.0°F17.2°C 96% 5.0 mph S8.0 kmh S 13.0 mph20.9 kmh 29.74 in1007.1 mb 0.01 in0.3 mm 0.00 in0.0 mm 1.06 in26.9 mm
06:50 AM 64.0°F17.8°C 62.8°F17.1°C 96% 5.0 mph S8.0 kmh S 11.0 mph17.7 kmh 29.74 in1007.1 mb 0.01 in0.3 mm 0.00 in0.0 mm 1.06 in26.9 mm
06:45 AM 63.9°F17.7°C 62.6°F17.0°C 96% 5.0 mph S8.0 kmh S 12.0 mph19.3 kmh 29.74 in1007.1 mb 0.01 in0.3 mm 0.12 in3.0 mm 1.06 in26.9 mm
06:40 AM 63.7°F17.6°C 62.6°F17.0°C 96% 4.0 mph S6.4 kmh S 12.0 mph19.3 kmh 29.74 in1007.1 mb 0.00 in0.0 mm 0.00 in0.0 mm 1.06 in26.9 mm
06:35 AM 63.3°F17.4°C 62.2°F16.8°C 96% 4.0 mph S6.4 kmh S 9.0 mph14.5 kmh 29.74 in1007.1 mb 0.00 in0.0 mm 0.00 in0.0 mm 1.06 in26.9 mm
06:30 AM 63.1°F17.3°C 62.1°F16.7°C 96% 4.0 mph S6.4 kmh S 9.0 mph14.5 kmh 29.74 in1007.1 mb 0.00 in0.0 mm 0.00 in0.0 mm 1.06 in26.9 mm
06:25 AM 63.1°F17.3°C 61.9°F16.6°C 96% 4.0 mph S6.4 kmh S 9.0 mph14.5 kmh 29.74 in1007.1 mb 0.00 in0.0 mm 0.00 in0.0 mm 1.06 in26.9 mm
06:20 AM 63.0°F17.2°C 61.7°F16.5°C 96% 3.0 mph S4.8 kmh S 8.0 mph12.9 kmh 29.74 in1007.1 mb 0.00 in0.0 mm 0.00 in0.0 mm 1.06 in26.9 mm
06:15 AM 63.0°F17.2°C 61.7°F16.5°C 96% 2.0 mph S3.2 kmh S 7.0 mph11.3 kmh 29.74 in1007.1 mb 0.00 in0.0 mm 0.00 in0.0 mm 1.06 in26.9 mm
06:10 AM 63.0°F17.2°C 61.7°F16.5°C 96% 2.0 mph S3.2 kmh S 7.0 mph11.3 kmh 29.74 in1007.1 mb 0.00 in0.0 mm 0.00 in0.0 mm 1.06 in26.9 mm
06:05 AM 63.0°F17.2°C 61.7°F16.5°C 96% 2.0 mph S3.2 kmh S 6.0 mph9.7 kmh 29.74 in1007.1 mb 0.00 in0.0 mm 0.00 in0.0 mm 1.06 in26.9 mm
06:00 AM 63.0°F17.2°C 61.7°F16.5°C 96% 2.0 mph S3.2 kmh S 6.0 mph9.7 kmh 29.74 in1007.1 mb 0.00 in0.0 mm 0.00 in0.0 mm 1.06 in26.9 mm
05:55 AM 63.0°F17.2°C 61.9°F16.6°C 96% 2.0 mph S3.2 kmh S 6.0 mph9.7 kmh 29.74 in1007.1 mb 0.00 in0.0 mm 0.00 in0.0 mm 1.06 in26.9 mm
05:50 AM 63.0°F17.2°C 61.9°F16.6°C 96% 2.0 mph S3.2 kmh S 7.0 mph11.3 kmh 29.74 in1007.1 mb 0.00 in0.0 mm 0.00 in0.0 mm 1.06 in26.9 mm
05:45 AM 63.0°F17.2°C 61.7°F16.5°C 96% 2.0 mph S3.2 kmh S 7.0 mph11.3 kmh 29.74 in1007.1 mb 0.00 in0.0 mm 0.00 in0.0 mm 1.06 in26.9 mm
05:40 AM 62.8°F17.1°C 61.5°F16.4°C 96% 2.0 mph S3.2 kmh S 9.0 mph14.5 kmh 29.75 in1007.5 mb 0.00 in0.0 mm 0.00 in0.0 mm 1.06 in26.9 mm
05:35 AM 62.6°F17.0°C 61.5°F16.4°C 96% 3.0 mph S4.8 kmh S 9.0 mph14.5 kmh 29.74 in1007.1 mb 0.00 in0.0 mm 0.00 in0.0 mm 1.06 in26.9 mm
05:30 AM 62.6°F17.0°C 61.5°F16.4°C 96% 2.0 mph S3.2 kmh S 9.0 mph14.5 kmh 29.74 in1007.1 mb 0.00 in0.0 mm 0.00 in0.0 mm 1.06 in26.9 mm
05:25 AM 62.6°F17.0°C 61.5°F16.4°C 96% 3.0 mph S4.8 kmh S 9.0 mph14.5 kmh 29.75 in1007.5 mb 0.00 in0.0 mm 0.00 in0.0 mm 1.06 in26.9 mm
05:20 AM 62.6°F17.0°C 61.5°F16.4°C 96% 3.0 mph S4.8 kmh S 9.0 mph14.5 kmh 29.75 in1007.5 mb 0.00 in0.0 mm 0.00 in0.0 mm 1.06 in26.9 mm
05:15 AM 62.6°F17.0°C 61.5°F16.4°C 96% 3.0 mph SSW4.8 kmh SSW 9.0 mph14.5 kmh 29.75 in1007.5 mb 0.00 in0.0 mm 0.00 in0.0 mm 1.06 in26.9 mm
05:10 AM 62.6°F17.0°C 61.5°F16.4°C 96% 3.0 mph S4.8 kmh S 7.0 mph11.3 kmh 29.74 in1007.1 mb 0.00 in0.0 mm 0.00 in0.0 mm 1.06 in26.9 mm
05:05 AM 62.6°F17.0°C 61.5°F16.4°C 96% 2.0 mph S3.2 kmh S 9.0 mph14.5 kmh 29.75 in1007.5 mb 0.00 in0.0 mm 0.00 in0.0 mm 1.06 in26.9 mm
05:00 AM 62.8°F17.1°C 61.5°F16.4°C 96% 2.0 mph S3.2 kmh S 9.0 mph14.5 kmh 29.74 in1007.1 mb 0.00 in0.0 mm 0.00 in0.0 mm 1.06 in26.9 mm
04:55 AM 62.8°F17.1°C 61.5°F16.4°C 96% 3.0 mph S4.8 kmh S 8.0 mph12.9 kmh 29.74 in1007.1 mb 0.00 in0.0 mm 0.00 in0.0 mm 1.06 in26.9 mm
04:50 AM 62.6°F17.0°C 61.5°F16.4°C 96% 3.0 mph S4.8 kmh S 8.0 mph12.9 kmh 29.74 in1007.1 mb 0.00 in0.0 mm 0.00 in0.0 mm 1.06 in26.9 mm
04:45 AM 62.6°F17.0°C 61.5°F16.4°C 96% 3.0 mph S4.8 kmh S 7.0 mph11.3 kmh 29.74 in1007.1 mb 0.00 in0.0 mm 0.00 in0.0 mm 1.06 in26.9 mm
04:40 AM 62.6°F17.0°C 61.5°F16.4°C 96% 3.0 mph S4.8 kmh S 8.0 mph12.9 kmh 29.74 in1007.1 mb 0.00 in0.0 mm 0.00 in0.0 mm 1.06 in26.9 mm
04:35 AM 62.4°F16.9°C 61.3°F16.3°C 96% 3.0 mph S4.8 kmh S 10.0 mph16.1 kmh 29.74 in1007.1 mb 0.00 in0.0 mm 0.00 in0.0 mm 1.06 in26.9 mm
04:30 AM 62.4°F16.9°C 61.3°F16.3°C 96% 3.0 mph S4.8 kmh S 10.0 mph16.1 kmh 29.74 in1007.1 mb 0.00 in0.0 mm 0.00 in0.0 mm 1.06 in26.9 mm
04:25 AM 62.4°F16.9°C 61.2°F16.2°C 96% 2.0 mph S3.2 kmh S 6.0 mph9.7 kmh 29.74 in1007.1 mb 0.00 in0.0 mm 0.00 in0.0 mm 1.06 in26.9 mm
04:20 AM 62.2°F16.8°C 60.8°F16.0°C 95% 3.0 mph S4.8 kmh S 8.0 mph12.9 kmh 29.74 in1007.1 mb 0.01 in0.3 mm 0.00 in0.0 mm 1.06 in26.9 mm
04:15 AM 62.2°F16.8°C 60.8°F16.0°C 95% 2.0 mph S3.2 kmh S 8.0 mph12.9 kmh 29.74 in1007.1 mb 0.01 in0.3 mm 0.00 in0.0 mm 1.06 in26.9 mm
04:10 AM 62.2°F16.8°C 60.8°F16.0°C 95% 1.0 mph S1.6 kmh S 5.0 mph8.0 kmh 29.74 in1007.1 mb 0.01 in0.3 mm 0.00 in0.0 mm 1.06 in26.9 mm
04:05 AM 62.4°F16.9°C 61.0°F16.1°C 95% 2.0 mph S3.2 kmh S 6.0 mph9.7 kmh 29.74 in1007.1 mb 0.01 in0.3 mm 0.00 in0.0 mm 1.06 in26.9 mm
04:00 AM 62.4°F16.9°C 61.0°F16.1°C 95% 2.0 mph S3.2 kmh S 6.0 mph9.7 kmh 29.74 in1007.1 mb 0.02 in0.5 mm 0.00 in0.0 mm 1.06 in26.9 mm
03:55 AM 62.4°F16.9°C 61.0°F16.1°C 95% 2.0 mph S3.2 kmh S 7.0 mph11.3 kmh 29.74 in1007.1 mb 0.03 in0.8 mm 0.00 in0.0 mm 1.06 in26.9 mm
03:50 AM 62.6°F17.0°C 61.2°F16.2°C 95% 3.0 mph S4.8 kmh S 7.0 mph11.3 kmh 29.75 in1007.5 mb 0.05 in1.3 mm 0.00 in0.0 mm 1.06 in26.9 mm
03:45 AM 62.6°F17.0°C 61.2°F16.2°C 95% 3.0 mph S4.8 kmh S 8.0 mph12.9 kmh 29.75 in1007.5 mb 0.06 in1.5 mm 0.00 in0.0 mm 1.06 in26.9 mm
03:40 AM 62.8°F17.1°C 61.2°F16.2°C 95% 2.0 mph S3.2 kmh S 8.0 mph12.9 kmh 29.75 in1007.5 mb 0.06 in1.5 mm 0.00 in0.0 mm 1.06 in26.9 mm
03:35 AM 62.8°F17.1°C 61.3°F16.3°C 95% 2.0 mph S3.2 kmh S 8.0 mph12.9 kmh 29.76 in1007.8 mb 0.08 in2.0 mm 0.00 in0.0 mm 1.06 in26.9 mm
03:30 AM 63.0°F17.2°C 61.5°F16.4°C 95% 3.0 mph S4.8 kmh S 10.0 mph16.1 kmh 29.75 in1007.5 mb 0.10 in2.5 mm 0.00 in0.0 mm 1.06 in26.9 mm
03:25 AM 63.0°F17.2°C 61.5°F16.4°C 95% 4.0 mph S6.4 kmh S 10.0 mph16.1 kmh 29.76 in1007.8 mb 0.12 in3.0 mm 0.00 in0.0 mm 1.06 in26.9 mm
03:20 AM 63.1°F17.3°C 61.7°F16.5°C 95% 4.0 mph S6.4 kmh S 11.0 mph17.7 kmh 29.77 in1008.1 mb 0.13 in3.3 mm 0.00 in0.0 mm 1.05 in26.7 mm
03:15 AM 63.1°F17.3°C 61.7°F16.5°C 95% 4.0 mph S6.4 kmh S 11.0 mph17.7 kmh 29.76 in1007.8 mb 0.14 in3.6 mm 0.00 in0.0 mm 1.05 in26.7 mm
03:10 AM 63.3°F17.4°C 61.9°F16.6°C 95% 4.0 mph S6.4 kmh S 7.0 mph11.3 kmh 29.76 in1007.8 mb 0.17 in4.3 mm 0.00 in0.0 mm 1.05 in26.7 mm
03:05 AM 63.3°F17.4°C 61.9°F16.6°C 95% 3.0 mph S4.8 kmh S 7.0 mph11.3 kmh 29.77 in1008.1 mb 0.19 in4.8 mm 0.00 in0.0 mm 1.05 in26.7 mm
03:00 AM 63.3°F17.4°C 61.9°F16.6°C 95% 2.0 mph S3.2 kmh S 6.0 mph9.7 kmh 29.77 in1008.1 mb 0.19 in4.8 mm 0.00 in0.0 mm 1.03 in26.2 mm
02:55 AM 63.5°F17.5°C 62.1°F16.7°C 95% 3.0 mph S4.8 kmh S 7.0 mph11.3 kmh 29.76 in1007.8 mb 0.21 in5.3 mm 0.00 in0.0 mm 1.02 in25.9 mm
02:50 AM 63.7°F17.6°C 62.2°F16.8°C 95% 3.0 mph S4.8 kmh S 7.0 mph11.3 kmh 29.74 in1007.1 mb 0.33 in8.4 mm 0.00 in0.0 mm 1.01 in25.7 mm
02:45 AM 63.7°F17.6°C 62.2°F16.8°C 95% 3.0 mph S4.8 kmh S 8.0 mph12.9 kmh 29.76 in1007.8 mb 0.50 in12.7 mm 0.00 in0.0 mm 1.00 in25.4 mm
02:40 AM 63.7°F17.6°C 62.2°F16.8°C 95% 3.0 mph S4.8 kmh S 8.0 mph12.9 kmh 29.77 in1008.1 mb 0.58 in14.7 mm 0.12 in3.0 mm 0.98 in24.9 mm
02:35 AM 63.7°F17.6°C 62.2°F16.8°C 95% 1.0 mph S1.6 kmh S 5.0 mph8.0 kmh 29.77 in1008.1 mb 0.57 in14.5 mm 0.12 in3.0 mm 0.97 in24.6 mm
02:30 AM 63.7°F17.6°C 62.2°F16.8°C 95% 1.0 mph S1.6 kmh S 4.0 mph6.4 kmh 29.77 in1008.1 mb 0.56 in14.2 mm 0.24 in6.1 mm 0.95 in24.1 mm
02:25 AM 63.9°F17.7°C 62.4°F16.9°C 95% 2.0 mph S3.2 kmh S 7.0 mph11.3 kmh 29.78 in1008.5 mb 0.54 in13.7 mm 0.12 in3.0 mm 0.94 in23.9 mm
02:20 AM 63.9°F17.7°C 62.4°F16.9°C 95% 3.0 mph S4.8 kmh S 7.0 mph11.3 kmh 29.77 in1008.1 mb 0.53 in13.5 mm 0.24 in6.1 mm 0.92 in23.4 mm
02:15 AM 64.0°F17.8°C 62.6°F17.0°C 95% 2.0 mph S3.2 kmh S 7.0 mph11.3 kmh 29.77 in1008.1 mb 0.51 in13.0 mm 0.24 in6.1 mm 0.91 in23.1 mm
02:10 AM 64.0°F17.8°C 62.6°F17.0°C 95% 1.0 mph S1.6 kmh S 5.0 mph8.0 kmh 29.77 in1008.1 mb 0.49 in12.4 mm 0.36 in9.1 mm 0.88 in22.4 mm
02:05 AM 64.0°F17.8°C 62.6°F17.0°C 95% 3.0 mph SSW4.8 kmh SSW 13.0 mph20.9 kmh 29.78 in1008.5 mb 0.46 in11.7 mm 0.12 in3.0 mm 0.86 in21.8 mm
02:00 AM 64.0°F17.8°C 62.6°F17.0°C 95% 4.0 mph S6.4 kmh S 13.0 mph20.9 kmh 29.78 in1008.5 mb 0.45 in11.4 mm 0.04 in1.0 mm 0.84 in21.3 mm
01:55 AM 64.2°F17.9°C 62.8°F17.1°C 95% 3.0 mph SSW4.8 kmh SSW 13.0 mph20.9 kmh 29.80 in1009.1 mb 0.41 in10.4 mm 1.44 in36.6 mm 0.80 in20.3 mm
01:50 AM 64.4°F18.0°C 63.0°F17.2°C 95% 1.0 mph SW1.6 kmh SW 9.0 mph14.5 kmh 29.78 in1008.5 mb 0.29 in7.4 mm 2.40 in61.0 mm 0.68 in17.3 mm
01:45 AM 64.6°F18.1°C 63.0°F17.2°C 95% 1.0 mph S1.6 kmh S 5.0 mph8.0 kmh 29.78 in1008.5 mb 0.09 in2.3 mm 0.48 in12.2 mm 0.46 in11.7 mm
01:40 AM 64.4°F18.0°C 63.0°F17.2°C 95% Calm Calm 4.0 mph6.4 kmh 29.77 in1008.1 mb 0.05 in1.3 mm 0.00 in0.0 mm 0.40 in10.2 mm
01:35 AM 64.4°F18.0°C 63.0°F17.2°C 95% Calm Calm 2.0 mph3.2 kmh 29.76 in1007.8 mb 0.05 in1.3 mm 0.00 in0.0 mm 0.39 in9.9 mm
01:30 AM 64.6°F18.1°C 63.0°F17.2°C 95% Calm Calm 1.0 mph1.6 kmh 29.76 in1007.8 mb 0.05 in1.3 mm 0.00 in0.0 mm 0.39 in9.9 mm
01:25 AM 64.6°F18.1°C 63.0°F17.2°C 95% Calm Calm 2.0 mph3.2 kmh 29.77 in1008.1 mb 0.05 in1.3 mm 0.00 in0.0 mm 0.39 in9.9 mm
01:20 AM 64.6°F18.1°C 63.0°F17.2°C 95% Calm Calm 4.0 mph6.4 kmh 29.77 in1008.1 mb 0.06 in1.5 mm 0.00 in0.0 mm 0.39 in9.9 mm
01:15 AM 64.6°F18.1°C 63.0°F17.2°C 95% Calm Calm 4.0 mph6.4 kmh 29.76 in1007.8 mb 0.06 in1.5 mm 0.00 in0.0 mm 0.39 in9.9 mm
01:10 AM 64.6°F18.1°C 63.0°F17.2°C 95% Calm Calm 4.0 mph6.4 kmh 29.77 in1008.1 mb 0.06 in1.5 mm 0.00 in0.0 mm 0.39 in9.9 mm
01:05 AM 64.6°F18.1°C 63.1°F17.3°C 95% 1.0 mph S1.6 kmh S 4.0 mph6.4 kmh 29.77 in1008.1 mb 0.06 in1.5 mm 0.00 in0.0 mm 0.39 in9.9 mm
01:00 AM 64.6°F18.1°C 63.0°F17.2°C 95% 1.0 mph S1.6 kmh S 5.0 mph8.0 kmh 29.77 in1008.1 mb 0.07 in1.8 mm 0.00 in0.0 mm 0.39 in9.9 mm
12:55 AM 64.6°F18.1°C 63.1°F17.3°C 95% 1.0 mph S1.6 kmh S 6.0 mph9.7 kmh 29.78 in1008.5 mb 0.07 in1.8 mm 0.00 in0.0 mm 0.39 in9.9 mm
12:50 AM 64.6°F18.1°C 63.1°F17.3°C 95% 2.0 mph S3.2 kmh S 6.0 mph9.7 kmh 29.78 in1008.5 mb 0.07 in1.8 mm 0.00 in0.0 mm 0.39 in9.9 mm
12:45 AM 64.6°F18.1°C 63.1°F17.3°C 95% 2.0 mph S3.2 kmh S 6.0 mph9.7 kmh 29.79 in1008.8 mb 0.09 in2.3 mm 0.00 in0.0 mm 0.37 in9.4 mm
12:40 AM 64.6°F18.1°C 63.0°F17.2°C 95% 2.0 mph S3.2 kmh S 6.0 mph9.7 kmh 29.79 in1008.8 mb 0.09 in2.3 mm 0.00 in0.0 mm 0.35 in8.9 mm
12:35 AM 64.6°F18.1°C 63.1°F17.3°C 95% 2.0 mph S3.2 kmh S 6.0 mph9.7 kmh 29.79 in1008.8 mb 0.10 in2.5 mm 0.00 in0.0 mm 0.35 in8.9 mm
12:30 AM 64.6°F18.1°C 63.1°F17.3°C 95% 2.0 mph S3.2 kmh S 6.0 mph9.7 kmh 29.79 in1008.8 mb 0.11 in2.8 mm 0.00 in0.0 mm 0.35 in8.9 mm
12:25 AM 64.6°F18.1°C 63.1°F17.3°C 95% 1.0 mph S1.6 kmh S 6.0 mph9.7 kmh 29.79 in1008.8 mb 0.13 in3.3 mm 0.00 in0.0 mm 0.35 in8.9 mm
12:20 AM 64.6°F18.1°C 63.1°F17.3°C 95% 1.0 mph S1.6 kmh S 5.0 mph8.0 kmh 29.79 in1008.8 mb 0.13 in3.3 mm 0.00 in0.0 mm 0.34 in8.6 mm
12:15 AM 64.6°F18.1°C 63.1°F17.3°C 95% 1.0 mph S1.6 kmh S 5.0 mph8.0 kmh 29.79 in1008.8 mb 0.16 in4.1 mm 0.00 in0.0 mm 0.33 in8.4 mm
12:10 AM 64.6°F18.1°C 63.1°F17.3°C 95% 2.0 mph S3.2 kmh S 5.0 mph8.0 kmh 29.80 in1009.1 mb 0.20 in5.1 mm 0.00 in0.0 mm 0.33 in8.4 mm
12:05 AM 64.6°F18.1°C 63.1°F17.3°C 95% 2.0 mph SSW3.2 kmh SSW 7.0 mph11.3 kmh 29.80 in1009.1 mb 0.28 in7.1 mm 0.00 in0.0 mm 0.33 in8.4 mm
12:00 AM 64.8°F18.2°C 63.3°F17.4°C 95% 2.0 mph S3.2 kmh S 7.0 mph11.3 kmh 29.81 in1009.5 mb 0.32 in8.1 mm 0.00 in0.0 mm 0.32 in8.1 mm